| time (UTC) | temp C | wind direction | speed KPH | gust KPH | rain 1hr cm | rain 24hr cm | rain mn cm | humidity % | barometer mb |
| 20260510204018 | 26 | 126 | 6.4 | 17.7 | 0.00 | 0.00 | 0.00 | 50 | 1010.3 |
| 20260510203047 | 26 | 52 | 11.3 | 22.5 | 0.00 | 0.00 | 0.00 | 48 | 1010.5 |
| 20260510202032 | 26 | 95 | 11.3 | 24.1 | 0.00 | 0.00 | 0.00 | 49 | 1010.4 |
| 20260510201023 | 26 | 95 | 11.3 | 19.3 | 0.00 | 0.00 | 0.00 | 48 | 1010.6 |
| 20260510200031 | 26 | 85 | 11.3 | 19.3 | 0.00 | 0.00 | 0.00 | 49 | 1010.7 |
| 20260510195038 | 26 | 107 | 8.0 | 17.7 | 0.00 | 0.00 | 0.00 | 47 | 1010.7 |
| 20260510194045 | 26 | 120 | 8.0 | 16.1 | 0.00 | 0.00 | 0.00 | 49 | 1010.9 |
| 20260510193019 | 26 | 105 | 11.3 | 17.7 | 0.00 | 0.00 | 0.00 | 49 | 1011.0 |
| 20260510192026 | 27 | 135 | 12.9 | 19.3 | 0.00 | 0.00 | 0.00 | 45 | 1011.2 |
| 20260510191037 | 27 | 140 | 6.4 | 17.7 | 0.00 | 0.00 | 0.00 | 44 | 1011.2 |
| 20260510190027 | 28 | 204 | 4.8 | 14.5 | 0.00 | 0.00 | 0.00 | 41 | 1011.3 |
| 20260510185038 | 28 | 265 | 4.8 | 14.5 | 0.00 | 0.00 | 0.00 | 42 | 1011.4 |
| 20260510184025 | 28 | 200 | 1.6 | 12.9 | 0.00 | 0.00 | 0.00 | 41 | 1011.3 |
| 20260510183033 | 28 | 240 | 1.6 | 6.4 | 0.00 | 0.00 | 0.00 | 43 | 1011.2 |
| 20260510182039 | 27 | 249 | 4.8 | 19.3 | 0.00 | 0.00 | 0.00 | 42 | 1011.5 |
| 20260510181030 | 27 | 153 | 3.2 | 11.3 | 0.00 | 0.00 | 0.00 | 41 | 1011.7 |
| 20260510180022 | 27 | 284 | 6.4 | 14.5 | 0.00 | 0.00 | 0.00 | 45 | 1011.7 |
| 20260510175028 | 27 | 238 | 1.6 | 9.7 | 0.00 | 0.00 | 0.00 | 42 | 1011.7 |
| 20260510174019 | 27 | 84 | 1.6 | 14.5 | 0.00 | 0.00 | 0.00 | 43 | 1011.5 |
| 20260510173051 | 27 | 119 | 3.2 | 8.0 | 0.00 | 0.00 | 0.00 | 46 | 1011.7 |
| 20260510172033 | 27 | 103 | 6.4 | 11.3 | 0.00 | 0.00 | 0.00 | 45 | 1012.0 |
| 20260510171020 | 27 | 247 | 6.4 | 14.5 | 0.00 | 0.00 | 0.00 | 45 | 1012.0 |
| 20260510170048 | 27 | 267 | 0.0 | 9.7 | 0.00 | 0.00 | 0.00 | 48 | 1012.0 |
| 20260510165019 | 26 | 126 | 3.2 | 9.7 | 0.00 | 0.00 | 0.00 | 46 | 1012.0 |
| 20260510164027 | 26 | 263 | 6.4 | 9.7 | 0.00 | 0.00 | 0.00 | 49 | 1012.1 |
| 20260510163055 | 26 | 304 | 8.0 | 11.3 | 0.00 | 0.00 | 0.00 | 47 | 1012.3 |
| 20260510162041 | 26 | 282 | 8.0 | 16.1 | 0.00 | 0.00 | 0.00 | 47 | 1012.5 |
| 20260510161028 | 26 | 233 | 4.8 | 9.7 | 0.00 | 0.00 | 0.00 | 47 | 1012.4 |
| 20260510160021 | 25 | 105 | 3.2 | 11.3 | 0.00 | 0.00 | 0.00 | 45 | 1012.5 |
| 20260510155031 | 25 | 275 | 6.4 | 12.9 | 0.00 | 0.00 | 0.00 | 47 | 1012.4 |
| 20260510154021 | 25 | 244 | 1.6 | 9.7 | 0.00 | 0.00 | 0.00 | 47 | 1012.5 |
| 20260510153029 | 25 | 126 | 4.8 | 9.7 | 0.00 | 0.00 | 0.00 | 48 | 1012.4 |
| 20260510152019 | 25 | 121 | 4.8 | 9.7 | 0.00 | 0.00 | 0.00 | 51 | 1012.6 |
| 20260510151046 | 24 | 101 | 4.8 | 12.9 | 0.00 | 0.00 | 0.00 | 53 | 1012.5 |
| 20260510150033 | 23 | 250 | 1.6 | 9.7 | 0.00 | 0.00 | 0.00 | 57 | 1012.4 |
| 20260510145042 | 23 | 209 | 6.4 | 11.3 | 0.00 | 0.00 | 0.00 | 57 | 1012.4 |
| 20260510144032 | 22 | 202 | 3.2 | 9.7 | 0.00 | 0.00 | 0.00 | 59 | 1012.4 |
| 20260510143038 | 22 | 220 | 6.4 | 9.7 | 0.00 | 0.00 | 0.00 | 63 | 1012.2 |
| 20260510142025 | 22 | 163 | 4.8 | 8.0 | 0.00 | 0.00 | 0.00 | 70 | 1012.2 |
| 20260510141032 | 22 | 209 | 1.6 | 8.0 | 0.00 | 0.00 | 0.00 | 72 | 1012.1 |
| 20260510140025 | 22 | 266 | 4.8 | 8.0 | 0.00 | 0.00 | 0.00 | 72 | 1012.0 |
| 20260510135015 | 21 | 285 | 3.2 | 6.4 | 0.00 | 0.00 | 0.00 | 72 | 1011.9 |
| 20260510134046 | 21 | 181 | 3.2 | 4.8 | 0.00 | 0.00 | 0.00 | 69 | 1011.9 |
| 20260510133034 | 21 | 61 | 0.0 | 4.8 | 0.00 | 0.00 | 0.00 | 72 | 1011.9 |
| 20260510132058 | 20 | 205 | 1.6 | 6.4 | 0.00 | 0.00 | 0.00 | 75 | 1012.0 |
| 20260510131049 | 20 | 267 | 0.0 | 4.8 | 0.00 | 0.00 | 0.00 | 78 | 1012.1 |
| 20260510130038 | 19 | 267 | 0.0 | 4.8 | 0.00 | 0.00 | 0.00 | 79 | 1011.8 |
| 20260510125043 | 18 | 288 | 1.6 | 4.8 | 0.00 | 0.00 | 0.00 | 80 | 1011.9 |
| 20260510124034 | 18 | 293 | 4.8 | 8.0 | 0.00 | 0.00 | 0.00 | 80 | 1012.0 |
| 20260510123027 | 17 | 269 | 6.4 | 8.0 | 0.00 | 0.00 | 0.00 | 83 | 1012.0 |
| 20260510122038 | 16 | 270 | 3.2 | 6.4 | 0.00 | 0.00 | 0.00 | 87 | 1011.9 |
| 20260510121025 | 16 | 254 | 3.2 | 6.4 | 0.00 | 0.00 | 0.00 | 91 | 1011.6 |
| 20260510120035 | 16 | 224 | 0.0 | 3.2 | 0.00 | 0.00 | 0.00 | 93 | 1011.6 |
| 20260510115025 | 16 | 224 | 0.0 | 1.6 | 0.00 | 0.00 | 0.00 | 95 | 1011.3 |
| 20260510114034 | 15 | 224 | 0.0 | 0.0 | 0.00 | 0.00 | 0.00 | 96 | 1011.2 |
| 20260510113021 | 15 | 224 | 0.0 | 1.6 | 0.00 | 0.00 | 0.00 | 95 | 1011.2 |
| 20260510112029 | 14 | 246 | 0.0 | 0.0 | 0.00 | 0.00 | 0.00 | 95 | 1011.1 |
| 20260510111020 | 13 | 281 | 0.0 | 0.0 | 0.00 | 0.00 | 0.00 | 96 | 1011.1 |
| 20260510110029 | 13 | 281 | 0.0 | 0.0 | 0.00 | 0.00 | 0.00 | 94 | 1010.9 |
| 20260510105036 | 13 | 281 | 0.0 | 0.0 | 0.00 | 0.00 | 0.00 | 95 | 1010.7 |
| 20260510104027 | 12 | 281 | 0.0 | 0.0 | 0.00 | 0.00 | 0.00 | 95 | 1010.6 |
| 20260510103035 | 12 | 281 | 0.0 | 0.0 | 0.00 | 0.00 | 0.00 | 94 | 1010.6 |
| 20260510102022 | 12 | 281 | 0.0 | 0.0 | 0.00 | 0.00 | 0.00 | 94 | 1010.4 |
| 20260510101033 | 12 | 281 | 0.0 | 0.0 | 0.00 | 0.00 | 0.00 | 95 | 1010.4 |
| 20260510100024 | 12 | 281 | 0.0 | 0.0 | 0.00 | 0.00 | 0.00 | 93 | 1010.2 |
| 20260510095031 | 13 | 281 | 0.0 | 0.0 | 0.00 | 0.00 | 0.00 | 94 | 1010.0 |
| 20260510094021 | 13 | 281 | 0.0 | 0.0 | 0.00 | 0.00 | 0.00 | 94 | 1009.9 |
| 20260510093029 | 13 | 281 | 0.0 | 0.0 | 0.00 | 0.00 | 0.00 | 94 | 1009.8 |
| 20260510092022 | 13 | 281 | 0.0 | 0.0 | 0.00 | 0.00 | 0.00 | 93 | 1009.6 |
| 20260510091048 | 13 | 273 | 0.0 | 0.0 | 0.00 | 0.00 | 0.00 | 93 | 1009.5 |
| 20260510090036 | 13 | 273 | 0.0 | 1.6 | 0.00 | 0.00 | 0.00 | 94 | 1009.6 |
| 20260510085044 | 13 | 273 | 0.0 | 0.0 | 0.00 | 0.00 | 0.00 | 94 | 1009.4 |
| 20260510084033 | 13 | 286 | 0.0 | 1.6 | 0.00 | 0.00 | 0.00 | 95 | 1009.2 |
| 20260510083021 | 13 | 223 | 0.0 | 0.0 | 0.00 | 0.00 | 0.00 | 95 | 1009.2 |
| 20260510082047 | 12 | 190 | 0.0 | 0.0 | 0.00 | 0.00 | 0.00 | 94 | 1009.1 |
| 20260510081033 | 12 | 190 | 0.0 | 0.0 | 0.00 | 0.00 | 0.00 | 94 | 1009.3 |
| 20260510080043 | 13 | 190 | 0.0 | 0.0 | 0.00 | 0.00 | 0.00 | 94 | 1009.2 |
| 20260510075055 | 13 | 190 | 0.0 | 0.0 | 0.00 | 0.00 | 0.00 | 93 | 1009.1 |
| 20260510074023 | 13 | 190 | 0.0 | 0.0 | 0.00 | 0.00 | 0.00 | 94 | 1008.9 |
| 20260510073032 | 13 | 190 | 0.0 | 0.0 | 0.00 | 0.00 | 0.00 | 93 | 1008.9 |
| 20260510072038 | 13 | 190 | 0.0 | 0.0 | 0.00 | 0.00 | 0.00 | 93 | 1008.8 |
| 20260510071029 | 13 | 190 | 0.0 | 0.0 | 0.00 | 0.00 | 0.00 | 94 | 1009.0 |
| 20260510070017 | 13 | 190 | 0.0 | 1.6 | 0.00 | 0.00 | 0.00 | 94 | 1008.9 |
| 20260510065025 | 12 | 101 | 0.0 | 0.0 | 0.00 | 0.00 | 0.00 | 93 | 1008.9 |
| 20260510064018 | 12 | 101 | 0.0 | 0.0 | 0.00 | 0.00 | 0.00 | 92 | 1008.9 |
| 20260510063046 | 13 | 101 | 0.0 | 0.0 | 0.00 | 0.00 | 0.00 | 92 | 1009.0 |
| 20260510062032 | 13 | 101 | 0.0 | 0.0 | 0.00 | 0.00 | 0.00 | 92 | 1008.9 |
| 20260510061058 | 13 | 101 | 0.0 | 0.0 | 0.00 | 0.00 | 0.00 | 92 | 1008.8 |
| 20260510060025 | 13 | 101 | 0.0 | 3.2 | 0.00 | 0.00 | 0.00 | 92 | 1008.8 |
| 20260510055035 | 13 | 101 | 0.0 | 1.6 | 0.00 | 0.00 | 0.00 | 92 | 1008.9 |
| 20260510054024 | 13 | 101 | 0.0 | 1.6 | 0.00 | 0.00 | 0.00 | 92 | 1008.8 |
| 20260510053033 | 13 | 101 | 0.0 | 1.6 | 0.00 | 0.00 | 0.00 | 91 | 1008.8 |
| 20260510052019 | 13 | 101 | 0.0 | 0.0 | 0.00 | 0.00 | 0.00 | 91 | 1008.9 |
| 20260510051033 | 13 | 101 | 0.0 | 0.0 | 0.00 | 0.00 | 0.00 | 91 | 1008.9 |
| 20260510050042 | 13 | 101 | 0.0 | 1.6 | 0.00 | 0.00 | 0.00 | 92 | 1008.9 |
| 20260510045029 | 13 | 101 | 0.0 | 1.6 | 0.00 | 0.00 | 0.00 | 92 | 1008.9 |
| 20260510044056 | 13 | 101 | 1.6 | 3.2 | 0.00 | 0.00 | 0.00 | 92 | 1008.8 |
| 20260510043027 | 13 | 101 | 0.0 | 0.0 | 0.00 | 0.00 | 0.00 | 91 | 1008.9 |
| 20260510042033 | 13 | 101 | 1.6 | 3.2 | 0.00 | 0.00 | 0.00 | 92 | 1008.8 |
| 20260510041021 | 13 | 101 | 0.0 | 0.0 | 0.00 | 0.00 | 0.00 | 91 | 1008.8 |
| 20260510040032 | 13 | 101 | 0.0 | 0.0 | 0.00 | 0.00 | 0.00 | 90 | 1008.8 |
| 20260510035023 | 13 | 101 | 0.0 | 0.0 | 0.00 | 0.00 | 0.00 | 91 | 1008.7 |
| 20260510034032 | 13 | 101 | 0.0 | 1.6 | 0.00 | 0.00 | 0.00 | 91 | 1008.8 |
| 20260510033020 | 13 | 101 | 0.0 | 1.6 | 0.00 | 0.00 | 0.00 | 90 | 1008.6 |
| 20260510032026 | 13 | 101 | 0.0 | 0.0 | 0.00 | 0.00 | 0.00 | 89 | 1008.6 |
| 20260510031041 | 13 | 101 | 0.0 | 0.0 | 0.00 | 0.00 | 0.00 | 89 | 1008.5 |
| 20260510030028 | 13 | 101 | 0.0 | 1.6 | 0.00 | 0.00 | 0.00 | 89 | 1008.4 |
| 20260510025037 | 14 | 101 | 0.0 | 0.0 | 0.00 | 0.00 | 0.00 | 89 | 1008.3 |
| 20260510024023 | 14 | 101 | 0.0 | 1.6 | 0.00 | 0.00 | 0.00 | 89 | 1008.3 |
| 20260510023037 | 14 | 101 | 0.0 | 1.6 | 0.00 | 0.00 | 0.00 | 89 | 1008.1 |
| 20260510022023 | 14 | 101 | 0.0 | 1.6 | 0.00 | 0.00 | 0.00 | 88 | 1008.0 |
| 20260510021050 | 15 | 101 | 0.0 | 1.6 | 0.00 | 0.00 | 0.00 | 88 | 1008.0 |
| 20260510020036 | 15 | 101 | 0.0 | 1.6 | 0.00 | 0.00 | 0.00 | 88 | 1007.8 |
| 20260510015027 | 15 | 101 | 0.0 | 0.0 | 0.00 | 0.00 | 0.00 | 86 | 1007.7 |
| 20260510014035 | 15 | 101 | 0.0 | 1.6 | 0.00 | 0.00 | 0.00 | 85 | 1007.8 |
| 20260510013025 | 15 | 101 | 0.0 | 1.6 | 0.00 | 0.00 | 0.00 | 85 | 1007.7 |
| 20260510012032 | 16 | 101 | 0.0 | 0.0 | 0.00 | 0.00 | 0.00 | 85 | 1007.6 |
| 20260510011025 | 16 | 101 | 0.0 | 0.0 | 0.00 | 0.00 | 0.00 | 84 | 1007.6 |
| 20260510010034 | 16 | 101 | 0.0 | 1.6 | 0.00 | 0.00 | 0.00 | 83 | 1007.4 |
| 20260510005022 | 17 | 101 | 0.0 | 1.6 | 0.00 | 0.00 | 0.00 | 82 | 1007.2 |
| 20260510004049 | 17 | 101 | 0.0 | 1.6 | 0.00 | 0.00 | 0.00 | 81 | 1007.2 |
| 20260510003023 | 17 | 101 | 0.0 | 3.2 | 0.00 | 0.00 | 0.00 | 79 | 1007.1 |
| 20260510002033 | 18 | 101 | 0.0 | 1.6 | 0.00 | 0.00 | 0.00 | 78 | 1007.1 |
| 20260510001020 | 18 | 101 | 0.0 | 3.2 | 0.00 | 0.00 | 0.00 | 76 | 1006.9 |
| 20260510000028 | 19 | 101 | 0.0 | 3.2 | 0.00 | 0.00 | 0.00 | 74 | 1006.9 |
| 20260509235018 | 20 | 101 | 0.0 | 1.6 | 0.00 | 0.00 | 0.00 | 74 | 1006.8 |
| 20260509234029 | 20 | 101 | 0.0 | 1.6 | 0.00 | 0.00 | 0.00 | 72 | 1006.7 |
| 20260509233037 | 21 | 101 | 1.6 | 4.8 | 0.00 | 0.00 | 0.00 | 70 | 1006.7 |
| 20260509232023 | 21 | 98 | 0.0 | 4.8 | 0.00 | 0.00 | 0.00 | 69 | 1006.7 |
| 20260509231035 | 21 | 98 | 1.6 | 4.8 | 0.00 | 0.00 | 0.00 | 68 | 1006.6 |
| 20260509230027 | 21 | 96 | 3.2 | 4.8 | 0.00 | 0.00 | 0.00 | 68 | 1006.6 |
| 20260509225034 | 21 | 131 | 1.6 | 8.0 | 0.00 | 0.00 | 0.00 | 68 | 1006.6 |
| 20260509224025 | 21 | 119 | 3.2 | 8.0 | 0.00 | 0.00 | 0.00 | 67 | 1006.6 |
| 20260509223033 | 21 | 87 | 3.2 | 8.0 | 0.00 | 0.00 | 0.00 | 67 | 1006.8 |
| 20260509222036 | 22 | 120 | 4.8 | 9.7 | 0.00 | 0.00 | 0.00 | 64 | 1006.8 |
| 20260509221038 | 22 | 110 | 4.8 | 11.3 | 0.00 | 0.00 | 0.00 | 63 | 1006.7 |
| 20260509220026 | 22 | 123 | 4.8 | 11.3 | 0.00 | 0.00 | 0.00 | 63 | 1007.0 |
| 20260509215037 | 22 | 144 | 6.4 | 9.7 | 0.00 | 0.00 | 0.00 | 64 | 1006.9 |
| 20260509214024 | 22 | 137 | 6.4 | 14.5 | 0.00 | 0.00 | 0.00 | 64 | 1006.7 |
| 20260509213054 | 22 | 149 | 4.8 | 14.5 | 0.00 | 0.00 | 0.00 | 64 | 1006.7 |
| 20260509212059 | 22 | 100 | 8.0 | 16.1 | 0.00 | 0.00 | 0.00 | 63 | 1006.6 |
| 20260509211029 | 23 | 98 | 9.7 | 16.1 | 0.00 | 0.00 | 0.00 | 60 | 1006.6 |
| 20260509210021 | 24 | 193 | 3.2 | 8.0 | 0.00 | 0.00 | 0.00 | 53 | 1006.4 |
| 20260509205050 | 23 | 243 | 1.6 | 6.4 | 0.00 | 0.00 | 0.00 | 57 | 1006.5 |